Noaa Caretta — WNG615 — position and weather

sailwx.info

Track history (hours):
 
Tides and Currents Weather Stations Pressure Air Temp Water Temp Dewpoint Dewpoint Depression Visibility Wind Speed Wind Dir Waves Ship Positions

Noaa Caretta

Last reported at 2017-Jun-08 13:58 UTC. Time now 2017-Jul-25 16:39 UTC.
Position N 30°15' W 086°13'.
Warning: this ship's position is 47 days out of date.

; draft 2.5 m.

Type: Fishing. MMSI: 369943000.

Date/timePositionNaut miles runAvg speedWind from/ knotsBaromVisibWave heightAir tempDewpointWater temp
2017-Jun-08 13:58N 30°15' W 086°13'4 7.9
2017-Jun-08 13:27N 30°16' W 086°17'4 7.7
2017-Jun-08 13:00N 30°16' W 086°21'4 7.5
2017-Jun-08 12:30N 30°17' W 086°26'4 7.2
2017-Jun-08 12:00N 30°18' W 086°30'4 7.1
2017-Jun-08 11:30N 30°19' W 086°34'4 7.1
2017-Jun-08 11:00N 30°20' W 086°37'4 7.1
2017-Jun-08 10:30N 30°22' W 086°41'1 1.5
2017-Jun-08 10:00N 30°22' W 086°42'0 0.0
2017-Jun-08 09:30N 30°22' W 086°42'0 0.0
2017-Jun-08 09:00N 30°22' W 086°42'0 0.0
2017-Jun-08 08:31N 30°22' W 086°42'0 0.0
2017-Jun-08 08:00N 30°22' W 086°42'0 0.0
2017-Jun-08 07:31N 30°22' W 086°42'0 0.0
2017-Jun-08 06:59N 30°22' W 086°42'0 0.0
2017-Jun-08 06:30N 30°22' W 086°42'0 0.0
2017-Jun-08 06:00N 30°22' W 086°42'0 0.0
2017-Jun-08 05:31N 30°22' W 086°42'0 0.0
2017-Jun-08 05:01N 30°22' W 086°42'0 0.0
2017-Jun-08 04:30N 30°22' W 086°42'0 0.0
2017-Jun-08 04:01N 30°22' W 086°42'3 6.0
2017-Jun-08 03:30N 30°22' W 086°46'4 7.1
2017-Jun-08 02:59N 30°21' W 086°50'5 6.9
2017-Jun-08 02:17N 30°21' W 086°55'  
Track history (hours):
 
Tides and Currents Weather Stations Pressure Air Temp Water Temp Dewpoint Dewpoint Depression Visibility Wind Speed Wind Dir Waves Ship Positions

Noaa Caretta

Last reported at 2017-Jun-08 13:58 UTC. Time now 2017-Jul-25 16:39 UTC.
Position N 30°15' W 086°13'.
Warning: this ship's position is 47 days out of date.

; draft 2.5 m.

Type: Fishing. MMSI: 369943000.

Date/timePositionNaut miles runAvg speedWind from/ knotsBaromVisibWave heightAir tempDewpointWater temp
2017-Jun-08 13:58N 30°15' W 086°13'4 7.9
2017-Jun-08 13:27N 30°16' W 086°17'4 7.7
2017-Jun-08 13:00N 30°16' W 086°21'4 7.5
2017-Jun-08 12:30N 30°17' W 086°26'4 7.2
2017-Jun-08 12:00N 30°18' W 086°30'4 7.1
2017-Jun-08 11:30N 30°19' W 086°34'4 7.1
2017-Jun-08 11:00N 30°20' W 086°37'4 7.1
2017-Jun-08 10:30N 30°22' W 086°41'1 1.5
2017-Jun-08 10:00N 30°22' W 086°42'0 0.0
2017-Jun-08 09:30N 30°22' W 086°42'0 0.0
2017-Jun-08 09:00N 30°22' W 086°42'0 0.0
2017-Jun-08 08:31N 30°22' W 086°42'0 0.0
2017-Jun-08 08:00N 30°22' W 086°42'0 0.0
2017-Jun-08 07:31N 30°22' W 086°42'0 0.0
2017-Jun-08 06:59N 30°22' W 086°42'0 0.0
2017-Jun-08 06:30N 30°22' W 086°42'0 0.0
2017-Jun-08 06:00N 30°22' W 086°42'0 0.0
2017-Jun-08 05:31N 30°22' W 086°42'0 0.0
2017-Jun-08 05:01N 30°22' W 086°42'0 0.0
2017-Jun-08 04:30N 30°22' W 086°42'0 0.0
2017-Jun-08 04:01N 30°22' W 086°42'3 6.0
2017-Jun-08 03:30N 30°22' W 086°46'4 7.1
2017-Jun-08 02:59N 30°21' W 086°50'5 6.9
2017-Jun-08 02:17N 30°21' W 086°55'  

Dump ship's entire track history